createdAt,value
2023-01-01T00:00:51.123Z,102173.28
2023-01-01T00:03:19.610Z,102171.44
2023-01-01T00:05:48.079Z,102167.75
2023-01-01T00:08:17.358Z,102170.56
2023-01-01T00:10:45.727Z,102167.16
2023-01-01T00:13:16.132Z,102168.75
2023-01-01T00:15:45.990Z,102165.19
2023-01-01T00:18:15.581Z,102165.19
2023-01-01T00:20:44.143Z,102160.94
2023-01-01T00:23:13.014Z,102161.34
2023-01-01T00:25:41.519Z,102156.09
2023-01-01T00:28:10.709Z,102149.03
2023-01-01T00:30:42.202Z,102140.66
2023-01-01T00:33:12.058Z,102145.75
2023-01-01T00:35:40.483Z,102147.47
2023-01-01T00:38:08.971Z,102150.28
2023-01-01T00:40:37.321Z,102152.00
2023-01-01T00:43:05.769Z,102158.09
2023-01-01T00:45:34.216Z,102153.09
2023-01-01T00:48:03.675Z,102159.94
2023-01-01T00:50:33.444Z,102166.84
2023-01-01T00:53:01.854Z,102171.66
2023-01-01T00:55:30.344Z,102177.75
2023-01-01T00:57:58.824Z,102173.94
2023-01-01T01:00:27.313Z,102147.66
2023-01-01T01:02:55.870Z,102188.34
2023-01-01T01:05:24.259Z,102190.34
2023-01-01T01:07:54.016Z,102196.72
2023-01-01T01:10:23.342Z,102203.09
2023-01-01T01:12:51.750Z,102210.16
2023-01-01T01:15:20.931Z,102225.31
2023-01-01T01:17:50.362Z,102229.72
2023-01-01T01:20:18.876Z,102228.41
2023-01-01T01:22:47.265Z,102223.59
2023-01-01T01:25:17.109Z,102226.56
2023-01-01T01:27:45.436Z,102228.53
2023-01-01T01:30:14.276Z,102224.13
2023-01-01T01:32:43.690Z,102227.28
2023-01-01T01:35:12.630Z,102216.53
2023-01-01T01:37:42.077Z,102204.66
2023-01-01T01:40:12.430Z,102199.28
2023-01-01T01:42:42.340Z,102195.88
2023-01-01T01:45:12.404Z,102202.34
2023-01-01T01:47:47.817Z,102173.63
2023-01-01T01:50:21.109Z,102210.44
2023-01-01T01:53:03.728Z,102201.38
2023-01-01T01:55:36.825Z,102206.16
2023-01-01T01:58:09.517Z,102199.47
2023-01-01T02:00:38.086Z,102200.44
2023-01-01T02:03:09.370Z,102209.38
2023-01-01T02:05:38.638Z,102211.06
2023-01-01T02:08:08.800Z,102210.09
2023-01-01T02:10:37.459Z,102195.13
2023-01-01T02:13:07.770Z,102215.84
2023-01-01T02:15:40.849Z,102197.66
2023-01-01T02:18:13.378Z,102225.16
2023-01-01T02:20:50.106Z,102223.19
2023-01-01T02:23:52.442Z,102203.88
2023-01-01T02:26:39.910Z,102231.53
2023-01-01T02:29:18.866Z,102204.25
2023-01-01T02:31:51.920Z,102234.09
2023-01-01T02:34:24.496Z,102231.13
2023-01-01T02:36:56.502Z,102229.69
2023-01-01T02:39:29.236Z,102207.66
2023-01-01T02:42:00.258Z,102228.72
2023-01-01T02:44:33.555Z,102103.28
2023-01-01T02:47:10.063Z,102199.34
2023-01-01T02:49:42.668Z,102183.75
2023-01-01T02:52:17.221Z,102200.13
2023-01-01T02:54:55.187Z,102195.72
2023-01-01T02:57:32.735Z,102196.13
2023-01-01T03:00:24.634Z,102163.88
2023-01-01T03:03:07.050Z,102202.63
2023-01-01T03:06:01.663Z,102185.66
2023-01-01T03:08:38.969Z,102071.69
2023-01-01T03:11:12.413Z,102178.25
2023-01-01T03:13:49.175Z,102180.56
2023-01-01T03:16:25.453Z,102175.94
2023-01-01T03:19:11.805Z,102152.47
2023-01-01T03:21:44.964Z,102173.38
2023-01-01T03:24:20.113Z,102182.28
2023-01-01T03:26:52.903Z,102152.00
2023-01-01T03:29:23.420Z,102165.44
2023-01-01T03:31:56.901Z,102197.13
2023-01-01T03:34:33.954Z,102195.84
2023-01-01T03:37:07.401Z,102194.88
2023-01-01T03:39:39.643Z,102192.19
2023-01-01T03:42:16.857Z,102172.47
2023-01-01T03:44:48.724Z,102195.84
2023-01-01T03:47:18.951Z,102193.16
2023-01-01T03:49:48.239Z,102195.00
2023-01-01T03:52:38.033Z,102173.25
2023-01-01T03:55:13.133Z,102197.13
2023-01-01T03:57:50.595Z,102160.47
2023-01-01T04:00:23.763Z,102188.34
2023-01-01T04:02:58.949Z,102182.97
2023-01-01T04:05:28.351Z,102186.88
2023-01-01T04:07:57.634Z,102191.16
2023-01-01T04:10:27.212Z,102160.72
2023-01-01T04:12:58.411Z,102184.84
2023-01-01T04:15:29.115Z,102188.38
2023-01-01T04:17:58.971Z,102189.50
2023-01-01T04:20:28.440Z,102185.38
2023-01-01T04:22:57.860Z,102170.22
2023-01-01T04:25:26.290Z,102174.75
2023-01-01T04:27:54.757Z,102176.97
2023-01-01T04:30:23.508Z,102183.34
2023-01-01T04:32:51.831Z,102189.97
2023-01-01T04:35:21.638Z,102183.13
2023-01-01T04:37:51.210Z,102183.13
2023-01-01T04:40:19.773Z,102179.69
2023-01-01T04:42:48.158Z,102175.28
2023-01-01T04:45:16.501Z,102171.88
2023-01-01T04:47:45.558Z,102170.44
2023-01-01T04:50:13.894Z,102166.88
2023-01-01T04:52:43.637Z,102167.75
2023-01-01T04:55:12.014Z,102170.56
2023-01-01T04:57:40.397Z,102174.47
2023-01-01T05:00:10.217Z,102174.72
2023-01-01T05:02:38.691Z,102163.53
2023-01-01T05:05:07.455Z,102172.47
2023-01-01T05:07:35.904Z,102171.72
2023-01-01T05:10:06.558Z,102174.16
2023-01-01T05:12:34.966Z,102177.94
2023-01-01T05:15:03.335Z,102179.66
2023-01-01T05:17:31.656Z,102181.63
2023-01-01T05:20:00.504Z,102179.78
2023-01-01T05:22:28.852Z,102180.28
2023-01-01T05:24:57.176Z,102178.72
2023-01-01T05:27:28.063Z,102182.97
2023-01-01T05:29:56.529Z,102190.78
2023-01-01T05:32:24.824Z,102188.69
2023-01-01T05:34:54.443Z,102192.84
2023-01-01T05:37:22.964Z,102196.50
2023-01-01T05:39:51.325Z,102205.41
2023-01-01T05:42:20.190Z,102209.66
2023-01-01T05:44:50.012Z,102218.44
2023-01-01T05:47:18.948Z,102210.25
2023-01-01T05:49:48.076Z,102214.88
2023-01-01T05:52:19.203Z,102214.56
2023-01-01T05:54:51.076Z,102214.56
2023-01-01T05:57:19.323Z,102212.00
2023-01-01T05:59:47.709Z,102205.66
2023-01-01T06:02:17.466Z,102203.81
2023-01-01T06:04:46.004Z,102215.41
2023-01-01T06:07:14.417Z,102213.59
2023-01-01T06:09:42.847Z,102218.22
2023-01-01T06:12:11.699Z,102213.84
2023-01-01T06:14:40.162Z,102213.84
2023-01-01T06:17:08.556Z,102219.22
2023-01-01T06:19:38.414Z,102207.38
2023-01-01T06:22:07.141Z,102214.56
2023-01-01T06:24:38.906Z,102214.31
2023-01-01T06:27:09.115Z,102224.34
2023-01-01T06:29:37.427Z,102234.94
2023-01-01T06:32:06.550Z,102236.66
2023-01-01T06:34:34.959Z,102236.06
2023-01-01T06:37:07.002Z,102229.22
2023-01-01T06:39:35.650Z,102231.06
2023-01-01T06:42:04.095Z,102224.59
2023-01-01T06:44:32.493Z,102228.84
2023-01-01T06:47:00.756Z,102196.28
2023-01-01T06:49:29.220Z,102225.09
2023-01-01T06:51:57.534Z,102232.03
2023-01-01T06:54:27.366Z,102230.81
2023-01-01T06:56:55.862Z,102233.38
2023-01-01T06:59:24.288Z,102231.78
2023-01-01T07:01:52.750Z,102236.44
2023-01-01T07:04:21.309Z,102240.34
2023-01-01T07:06:50.751Z,102235.34
2023-01-01T07:09:19.180Z,102235.47
2023-01-01T07:11:48.970Z,102238.41
2023-01-01T07:14:17.324Z,102236.69
2023-01-01T07:16:45.643Z,102241.94
2023-01-01T07:19:14.069Z,102237.41
2023-01-01T07:21:46.059Z,102247.19
2023-01-01T07:24:15.792Z,102242.66
2023-01-01T07:26:44.189Z,102232.66
2023-01-01T07:29:14.501Z,102237.91
2023-01-01T07:31:45.889Z,102235.34
2023-01-01T07:34:15.905Z,102231.81
2023-01-01T07:36:44.578Z,102235.34
2023-01-01T07:39:14.000Z,102234.25
2023-01-01T07:41:42.459Z,102237.66
2023-01-01T07:44:11.369Z,102237.53
2023-01-01T07:46:41.332Z,102247.91
2023-01-01T07:49:10.733Z,102246.91
2023-01-01T07:51:39.072Z,102252.28
2023-01-01T07:54:08.997Z,102244.34
2023-01-01T07:56:37.717Z,102235.34
2023-01-01T07:59:06.171Z,102246.19
2023-01-01T08:01:37.939Z,102247.78
2023-01-01T08:04:08.033Z,102249.34
2023-01-01T08:06:36.544Z,102252.78
2023-01-01T08:09:04.986Z,102255.47
2023-01-01T08:11:33.393Z,102257.00
2023-01-01T08:14:02.863Z,102261.16
2023-01-01T08:16:31.345Z,102267.38
2023-01-01T08:18:59.867Z,102261.88
2023-01-01T08:21:29.843Z,102263.59
2023-01-01T08:23:58.198Z,102267.13
2023-01-01T08:26:32.857Z,102247.16
2023-01-01T08:29:04.060Z,102258.59
2023-01-01T08:31:32.709Z,102270.78
2023-01-01T08:34:01.232Z,102259.19
2023-01-01T08:36:31.114Z,102259.06
2023-01-01T08:39:00.098Z,102260.53
2023-01-01T08:41:28.497Z,102258.44
2023-01-01T08:43:56.841Z,102258.09
2023-01-01T08:46:25.303Z,102249.19
2023-01-01T08:48:53.865Z,102252.59
2023-01-01T08:51:22.230Z,102255.16
2023-01-01T08:53:52.078Z,102254.88
2023-01-01T08:56:20.861Z,102255.72
2023-01-01T08:58:49.924Z,102259.16
2023-01-01T09:01:21.881Z,102258.59
2023-01-01T09:03:50.558Z,102258.59
2023-01-01T09:06:19.001Z,102261.97
2023-01-01T09:08:47.456Z,102270.75
2023-01-01T09:11:25.047Z,102275.63
2023-01-01T09:13:54.192Z,102241.84
2023-01-01T09:16:24.123Z,102264.03
2023-01-01T09:18:52.787Z,102272.22
2023-01-01T09:21:21.527Z,102270.97
2023-01-01T09:23:50.910Z,102283.31
2023-01-01T09:26:19.208Z,102278.66
2023-01-01T09:28:49.121Z,102276.69
2023-01-01T09:31:17.526Z,102278.53
2023-01-01T09:33:45.909Z,102279.50
2023-01-01T09:36:16.545Z,102283.78
2023-01-01T09:38:49.562Z,102275.47
2023-01-01T09:41:25.236Z,102253.41
2023-01-01T09:44:04.421Z,102268.97
2023-01-01T09:46:33.967Z,102269.97
2023-01-01T09:49:06.785Z,102135.91
2023-01-01T09:51:45.212Z,102270.88
2023-01-01T09:54:28.479Z,102133.56
2023-01-01T09:56:59.396Z,102127.81
2023-01-01T09:59:29.750Z,102263.47
2023-01-01T10:02:05.508Z,102262.13
2023-01-01T10:04:50.040Z,102111.66
2023-01-01T10:07:25.875Z,102257.38
2023-01-01T10:10:03.107Z,102144.59
2023-01-01T10:12:38.003Z,102235.38
2023-01-01T10:15:17.801Z,102228.44
2023-01-01T10:17:49.725Z,102223.06
2023-01-01T10:20:24.883Z,102253.63
2023-01-01T10:22:57.501Z,102215.72
2023-01-01T10:25:28.460Z,102244.00
2023-01-01T10:28:01.201Z,102243.00
2023-01-01T10:30:32.701Z,102237.63
2023-01-01T10:33:01.266Z,102239.84
2023-01-01T10:35:36.594Z,102243.25
2023-01-01T10:38:06.140Z,102238.75
2023-01-01T10:40:35.218Z,102238.59
2023-01-01T10:43:04.487Z,102236.50
2023-01-01T10:45:35.635Z,102230.00
2023-01-01T10:48:20.110Z,102225.91
2023-01-01T10:50:52.006Z,102213.63
2023-01-01T10:53:30.308Z,102221.75
2023-01-01T10:56:11.883Z,102213.31
2023-01-01T10:58:45.408Z,102172.31
2023-01-01T11:01:34.168Z,102237.06
2023-01-01T11:04:22.111Z,102176.75
2023-01-01T11:06:50.580Z,102204.44
2023-01-01T11:09:23.172Z,102181.78
2023-01-01T11:12:01.998Z,102193.28
2023-01-01T11:14:40.215Z,102191.59
2023-01-01T11:17:11.412Z,102180.09
2023-01-01T11:19:48.741Z,102186.34
2023-01-01T11:22:38.415Z,102178.69
2023-01-01T11:25:20.232Z,102140.69
2023-01-01T11:27:50.043Z,102170.91
2023-01-01T11:30:25.062Z,102175.28
2023-01-01T11:32:58.114Z,102049.13
2023-01-01T11:35:28.699Z,102144.94
2023-01-01T11:37:58.668Z,102168.75
2023-01-01T11:40:34.353Z,102156.28
2023-01-01T11:43:05.375Z,102041.75
2023-01-01T11:45:37.798Z,102146.78
2023-01-01T11:48:15.721Z,102144.38
2023-01-01T11:50:54.225Z,102140.97
2023-01-01T11:53:30.886Z,102123.41
2023-01-01T11:56:07.505Z,102140.53
2023-01-01T11:58:42.871Z,102136.69
2023-01-01T12:01:15.953Z,102130.88
2023-01-01T12:03:50.628Z,102092.75
2023-01-01T12:06:24.785Z,102108.03
2023-01-01T12:08:58.297Z,102105.75
2023-01-01T12:11:33.417Z,102094.59
2023-01-01T12:14:13.472Z,102090.56
2023-01-01T12:16:51.700Z,102095.81
2023-01-01T12:19:25.947Z,102075.25
2023-01-01T12:22:00.519Z,102091.81
2023-01-01T12:24:36.468Z,102074.09
2023-01-01T12:27:17.280Z,102105.00
2023-01-01T12:30:06.917Z,102100.91
2023-01-01T12:32:51.466Z,102097.22
2023-01-01T12:35:30.547Z,102074.31
2023-01-01T12:38:11.838Z,102103.47
2023-01-01T12:40:44.310Z,102097.09
2023-01-01T12:43:18.079Z,102089.69
2023-01-01T12:46:29.551Z,102094.25
2023-01-01T12:49:36.885Z,102068.63
2023-01-01T12:52:20.451Z,102073.31
2023-01-01T12:55:22.371Z,102087.28
2023-01-01T12:57:57.963Z,102061.53
2023-01-01T13:00:27.442Z,102081.31
2023-01-01T13:03:00.062Z,102061.31
2023-01-01T13:05:36.484Z,102092.66
2023-01-01T13:08:07.935Z,102093.22
2023-01-01T13:10:38.830Z,102056.06
2023-01-01T13:13:07.892Z,102076.63
2023-01-01T13:15:44.534Z,102059.78
2023-01-01T13:18:27.697Z,102067.97
2023-01-01T13:21:08.923Z,102064.59
2023-01-01T13:23:52.900Z,102065.03
2023-01-01T13:26:35.969Z,102065.16
2023-01-01T13:29:44.088Z,101950.47
2023-01-01T13:32:15.923Z,102063.09
2023-01-01T13:35:03.211Z,102067.44
2023-01-01T13:37:49.551Z,102069.16
2023-01-01T13:40:52.984Z,102072.41
2023-01-01T13:43:30.176Z,102020.09
2023-01-01T13:46:11.633Z,102055.53
2023-01-01T13:49:02.725Z,102062.63
2023-01-01T13:52:08.266Z,102046.19
2023-01-01T13:55:13.476Z,102054.16
2023-01-01T13:58:01.828Z,102051.00
2023-01-01T14:00:37.337Z,102053.59
2023-01-01T14:03:13.158Z,102049.03
2023-01-01T14:05:46.252Z,102019.09
2023-01-01T14:08:29.997Z,102054.44
2023-01-01T14:11:00.845Z,102053.69
2023-01-01T14:13:32.625Z,102059.81
2023-01-01T14:16:04.553Z,102020.66
2023-01-01T14:18:35.747Z,101980.91
2023-01-01T14:21:04.419Z,102060.53
2023-01-01T14:23:35.772Z,102054.53
2023-01-01T14:26:09.090Z,102042.50
2023-01-01T14:28:40.130Z,102056.97
2023-01-01T14:31:13.909Z,102063.22
2023-01-01T14:33:42.404Z,102017.19
2023-01-01T14:36:19.648Z,102053.84
2023-01-01T14:38:50.226Z,102049.91
2023-01-01T14:41:25.813Z,102058.13
2023-01-01T14:43:58.849Z,102058.72
2023-01-01T14:46:28.473Z,102057.31
2023-01-01T14:49:02.572Z,102058.03
2023-01-01T14:51:33.263Z,102061.56
2023-01-01T14:54:03.579Z,102036.91
2023-01-01T14:56:33.903Z,102070.06
2023-01-01T14:59:11.477Z,102064.97
2023-01-01T15:01:42.736Z,102070.09
2023-01-01T15:04:20.639Z,101936.91
2023-01-01T15:06:55.094Z,102068.66
2023-01-01T15:09:23.627Z,102071.63
2023-01-01T15:11:53.503Z,102065.56
2023-01-01T15:14:34.845Z,102068.56
2023-01-01T15:17:06.078Z,102062.59
2023-01-01T15:19:36.697Z,102068.69
2023-01-01T15:22:11.100Z,102072.25
2023-01-01T15:24:40.807Z,102065.56
2023-01-01T15:27:20.280Z,102054.78
2023-01-01T15:29:50.720Z,102053.81
2023-01-01T15:32:26.555Z,102031.97
2023-01-01T15:34:56.932Z,102064.72
2023-01-01T15:37:32.340Z,102066.69
2023-01-01T15:40:03.223Z,102056.63
2023-01-01T15:42:35.221Z,101942.16
2023-01-01T15:45:29.283Z,102060.88
2023-01-01T15:47:59.551Z,102032.28
2023-01-01T15:50:30.959Z,102043.03
2023-01-01T15:53:01.845Z,102081.44
2023-01-01T15:55:34.735Z,102065.44
2023-01-01T15:58:05.675Z,102079.72
2023-01-01T16:00:41.939Z,102068.13
2023-01-01T16:03:20.333Z,102071.81
2023-01-01T16:05:51.488Z,102076.34
2023-01-01T16:08:21.244Z,102069.13
2023-01-01T16:10:51.493Z,102053.66
2023-01-01T16:13:21.069Z,101973.41
2023-01-01T16:15:55.227Z,102075.19
2023-01-01T16:18:29.566Z,101973.09
2023-01-01T16:20:58.138Z,102080.00
2023-01-01T16:23:26.617Z,102081.84
2023-01-01T16:25:55.066Z,102072.56
2023-01-01T16:28:23.803Z,102081.69
2023-01-01T16:30:53.601Z,102080.72
2023-01-01T16:33:22.967Z,102093.03
2023-01-01T16:35:52.416Z,102094.31
2023-01-01T16:38:20.813Z,102095.16
2023-01-01T16:40:49.333Z,102089.78
2023-01-01T16:43:20.049Z,102097.13
2023-01-01T16:45:48.546Z,102088.91
2023-01-01T16:48:19.299Z,102097.13
2023-01-01T16:50:51.703Z,102094.44
2023-01-01T16:53:20.080Z,102090.03
2023-01-01T16:55:52.165Z,102081.97
2023-01-01T16:58:48.415Z,102095.88
2023-01-01T17:01:09.461Z,102088.19
2023-01-01T17:03:39.784Z,102090.63
2023-01-01T17:06:09.944Z,102094.41
2023-01-01T17:08:39.061Z,102095.13
2023-01-01T17:11:10.987Z,102110.41
2023-01-01T17:13:40.095Z,102093.56
2023-01-01T17:16:08.816Z,102099.94
2023-01-01T17:19:14.032Z,102068.28
2023-01-01T17:21:27.426Z,102091.13
2023-01-01T17:23:55.914Z,102101.78
2023-01-01T17:26:27.736Z,102107.00
2023-01-01T17:29:00.571Z,102107.88
2023-01-01T17:31:29.556Z,102115.94
2023-01-01T17:33:58.240Z,102119.97
2023-01-01T17:36:28.298Z,102112.69
2023-01-01T17:38:56.954Z,102112.25
2023-01-01T17:41:25.377Z,102106.88
2023-01-01T17:43:54.120Z,102110.56
2023-01-01T17:46:24.697Z,102037.94
2023-01-01T17:48:53.789Z,102108.59
2023-01-01T17:51:22.572Z,102109.72
2023-01-01T17:53:52.605Z,102110.69
2023-01-01T17:56:22.346Z,102108.28
2023-01-01T17:58:52.507Z,102121.00
2023-01-01T18:01:31.442Z,102113.94
2023-01-01T18:04:02.001Z,102085.00
2023-01-01T18:06:33.365Z,102107.84
2023-01-01T18:09:07.667Z,102095.19
2023-01-01T18:11:36.177Z,102118.59
2023-01-01T18:14:05.535Z,102113.94
2023-01-01T18:16:36.258Z,102008.13
2023-01-01T18:19:05.574Z,102121.16
2023-01-01T18:21:35.028Z,102126.41
2023-01-01T18:24:08.284Z,102123.00
2023-01-01T18:26:37.073Z,102118.47
2023-01-01T18:29:05.715Z,102115.78
2023-01-01T18:31:35.632Z,102116.63
2023-01-01T18:34:04.822Z,102122.84
2023-01-01T18:36:35.300Z,102126.66
2023-01-01T18:39:14.713Z,102129.50
2023-01-01T18:42:32.563Z,102097.16
2023-01-01T18:45:14.760Z,102121.97
2023-01-01T18:47:45.875Z,102124.38
2023-01-01T18:50:23.998Z,102133.16
2023-01-01T18:52:55.736Z,102125.94
2023-01-01T18:55:28.235Z,102123.00
2023-01-01T18:58:00.511Z,102123.00
2023-01-01T19:00:33.354Z,102086.97
2023-01-01T19:03:03.686Z,102110.22
2023-01-01T19:05:34.359Z,102114.59
2023-01-01T19:08:12.318Z,102120.69
2023-01-01T19:10:45.217Z,102021.97
2023-01-01T19:13:20.474Z,102094.88
2023-01-01T19:15:50.894Z,102115.88
2023-01-01T19:18:21.465Z,102122.09
2023-01-01T19:20:52.154Z,102095.91
2023-01-01T19:23:23.809Z,102132.19
2023-01-01T19:25:54.070Z,102134.22
2023-01-01T19:28:36.731Z,102137.47
2023-01-01T19:31:06.725Z,102092.31
2023-01-01T19:33:35.200Z,102138.56
2023-01-01T19:36:03.583Z,102136.72
2023-01-01T19:38:33.301Z,102139.53
2023-01-01T19:41:03.142Z,102140.53
2023-01-01T19:43:31.567Z,102138.81
2023-01-01T19:46:00.018Z,102139.41
2023-01-01T19:48:29.345Z,102143.78
2023-01-01T19:50:58.698Z,102146.22
2023-01-01T19:53:27.141Z,102139.97
2023-01-01T19:55:55.614Z,102140.13
2023-01-01T19:58:25.701Z,102137.44
2023-01-01T20:00:54.293Z,102136.72
2023-01-01T20:03:52.686Z,102137.44
2023-01-01T20:06:12.751Z,102133.75
2023-01-01T20:08:41.052Z,102132.91
2023-01-01T20:11:09.685Z,102135.44
2023-01-01T20:13:39.433Z,102137.56
2023-01-01T20:16:08.761Z,102141.09
2023-01-01T20:18:37.136Z,102138.41
2023-01-01T20:21:26.311Z,102140.66
2023-01-01T20:23:56.178Z,102132.31
2023-01-01T20:26:26.209Z,102147.16
2023-01-01T20:29:13.364Z,102148.72
2023-01-01T20:31:42.986Z,102158.06
2023-01-01T20:34:11.546Z,102159.75
2023-01-01T20:36:57.836Z,102154.38
2023-01-01T20:39:26.239Z,102150.84
2023-01-01T20:41:55.821Z,102154.50
2023-01-01T20:44:25.810Z,102154.13
2023-01-01T20:46:54.489Z,102151.69
2023-01-01T20:49:23.702Z,102156.09
2023-01-01T20:51:54.087Z,102028.13
2023-01-01T20:54:24.078Z,102151.56
2023-01-01T20:56:52.494Z,102145.31
2023-01-01T20:59:38.390Z,102143.34
2023-01-01T21:02:11.658Z,102137.97
2023-01-01T21:04:40.814Z,102136.25
2023-01-01T21:07:11.083Z,102109.03
2023-01-01T21:09:40.781Z,102133.56
2023-01-01T21:12:10.473Z,102125.63
2023-01-01T21:14:38.969Z,102133.97
2023-01-01T21:17:21.477Z,102097.81
2023-01-01T21:19:50.919Z,102133.16
2023-01-01T21:22:19.240Z,102139.34
2023-01-01T21:24:53.721Z,102137.53
2023-01-01T21:27:30.646Z,102128.59
2023-01-01T21:30:00.006Z,102133.00
2023-01-01T21:32:38.778Z,102135.53
2023-01-01T21:35:17.408Z,102130.16
2023-01-01T21:37:49.836Z,102136.84
2023-01-01T21:40:42.474Z,102132.44
2023-01-01T21:43:35.553Z,102136.13
2023-01-01T21:46:23.851Z,102139.06
2023-01-01T21:48:58.206Z,102134.41
2023-01-01T21:51:28.798Z,102119.94
2023-01-01T21:54:14.047Z,102135.13
2023-01-01T21:56:44.130Z,102129.03
2023-01-01T21:59:28.166Z,102140.66
2023-01-01T22:02:02.630Z,102109.00
2023-01-01T22:04:37.413Z,102114.22
2023-01-01T22:07:56.592Z,102133.81
2023-01-01T22:10:15.956Z,101995.53
2023-01-01T22:12:44.623Z,102124.06
2023-01-01T22:15:30.149Z,102122.22
2023-01-01T22:18:19.043Z,102143.72
2023-01-01T22:20:48.909Z,102130.28
2023-01-01T22:23:41.650Z,102128.59
2023-01-01T22:26:18.622Z,102128.59
2023-01-01T22:28:50.459Z,102124.19
2023-01-01T22:31:23.398Z,102115.63
2023-01-01T22:33:53.982Z,102123.28
2023-01-01T22:36:26.734Z,102131.22
2023-01-01T22:38:58.537Z,102117.31
2023-01-01T22:41:26.985Z,102137.78
2023-01-01T22:43:59.647Z,102154.75
2023-01-01T22:46:30.021Z,102143.41
2023-01-01T22:49:01.190Z,102149.50
2023-01-01T22:51:40.160Z,102123.97
2023-01-01T22:54:08.607Z,102139.75
2023-01-01T22:56:36.947Z,102138.88
2023-01-01T22:59:05.716Z,102137.78
2023-01-01T23:01:42.364Z,102135.94
2023-01-01T23:04:10.943Z,102129.13
2023-01-01T23:06:40.827Z,102132.66
2023-01-01T23:09:11.415Z,102127.16
2023-01-01T23:11:40.109Z,102111.09
2023-01-01T23:14:26.196Z,102129.13
2023-01-01T23:16:54.621Z,102129.38
2023-01-01T23:19:23.018Z,102126.56
2023-01-01T23:21:52.917Z,102132.94
2023-01-01T23:24:24.450Z,102140.16
2023-01-01T23:26:54.128Z,102124.00
2023-01-01T23:29:23.215Z,102121.31
2023-01-01T23:31:52.402Z,102122.31
2023-01-01T23:34:20.848Z,102117.91
2023-01-01T23:36:51.662Z,102095.66
2023-01-01T23:39:21.616Z,102107.16
2023-01-01T23:41:51.195Z,102104.31
2023-01-01T23:44:19.804Z,102094.41
2023-01-01T23:46:48.223Z,102090.63
2023-01-01T23:49:16.973Z,102090.03
2023-01-01T23:51:45.628Z,102095.53
2023-01-01T23:54:14.083Z,102086.50
2023-01-01T23:56:46.008Z,102089.19
2023-01-01T23:59:14.413Z,102083.94
